CHICAGO O'HARE INTL

KORD (ORD)
Chicago, Illinois
Towered

Vatsim Metar:
KORD 131051Z 36003KT 10SM SCT200 SCT250 21/19 A3010 RMK AO2 SLP189 T02110189

No ATC Online

Traffic

Inbound:
Ident
Type
Name
ETA
Phase
JBU1543
E190/L
Jamil McGhee KORD
12:09 Z
Descent
SOO9640
B77L
Mark Mason EG3N
13:47 Z
Cruse
AAL2431
H/B789/L
Wilson Wong VHHH
13:43 Z
Cruse
OAL0463
H/B748
Mike Bourekas LGAV
16:16 Z
Cruse

Outbound:
Ident
Type
Name
Destination
Phase
UAL963
H/B789/L
Michael Jackson KJAX
EPWA
Climb

IAPs